sensor_id;sensor_type;location;lat;lon;timestamp;temperature;humidity
11569;DHT22;5840;46.894;15.542;2023-07-31T00:00:04;17.40;99.90
11569;DHT22;5840;46.894;15.542;2023-07-31T00:02:33;17.40;99.90
11569;DHT22;5840;46.894;15.542;2023-07-31T00:05:00;17.40;99.90
11569;DHT22;5840;46.894;15.542;2023-07-31T00:07:27;17.40;99.90
11569;DHT22;5840;46.894;15.542;2023-07-31T00:09:54;17.40;99.90
11569;DHT22;5840;46.894;15.542;2023-07-31T00:12:22;17.40;99.90
11569;DHT22;5840;46.894;15.542;2023-07-31T00:14:49;17.40;99.90
11569;DHT22;5840;46.894;15.542;2023-07-31T00:17:17;17.40;99.90
11569;DHT22;5840;46.894;15.542;2023-07-31T00:19:45;17.40;99.90
11569;DHT22;5840;46.894;15.542;2023-07-31T00:22:14;17.40;99.90
11569;DHT22;5840;46.894;15.542;2023-07-31T00:24:41;17.40;99.90
11569;DHT22;5840;46.894;15.542;2023-07-31T00:27:08;17.40;99.90
11569;DHT22;5840;46.894;15.542;2023-07-31T00:29:35;17.40;99.90
11569;DHT22;5840;46.894;15.542;2023-07-31T00:32:02;17.40;99.90
11569;DHT22;5840;46.894;15.542;2023-07-31T00:34:29;17.40;99.90
11569;DHT22;5840;46.894;15.542;2023-07-31T00:36:57;17.40;99.90
11569;DHT22;5840;46.894;15.542;2023-07-31T00:39:24;17.40;99.90
11569;DHT22;5840;46.894;15.542;2023-07-31T00:41:51;17.40;99.90
11569;DHT22;5840;46.894;15.542;2023-07-31T00:44:18;17.40;99.90
11569;DHT22;5840;46.894;15.542;2023-07-31T00:46:45;17.40;99.90
11569;DHT22;5840;46.894;15.542;2023-07-31T00:49:12;17.40;99.90
11569;DHT22;5840;46.894;15.542;2023-07-31T00:51:39;17.40;99.90
11569;DHT22;5840;46.894;15.542;2023-07-31T00:54:08;17.40;99.90
11569;DHT22;5840;46.894;15.542;2023-07-31T00:56:35;17.40;99.90
11569;DHT22;5840;46.894;15.542;2023-07-31T00:59:02;17.40;99.90
11569;DHT22;5840;46.894;15.542;2023-07-31T01:01:29;17.40;99.90
11569;DHT22;5840;46.894;15.542;2023-07-31T01:03:56;17.30;99.90
11569;DHT22;5840;46.894;15.542;2023-07-31T01:06:30;17.30;99.90
11569;DHT22;5840;46.894;15.542;2023-07-31T01:09:02;17.20;99.90
11569;DHT22;5840;46.894;15.542;2023-07-31T01:11:35;17.20;99.90
11569;DHT22;5840;46.894;15.542;2023-07-31T01:14:03;17.20;99.90
11569;DHT22;5840;46.894;15.542;2023-07-31T01:16:31;17.20;99.90
11569;DHT22;5840;46.894;15.542;2023-07-31T01:18:58;17.10;99.90
11569;DHT22;5840;46.894;15.542;2023-07-31T01:21:41;17.00;99.90
11569;DHT22;5840;46.894;15.542;2023-07-31T01:24:29;17.00;99.90
11569;DHT22;5840;46.894;15.542;2023-07-31T01:27:03;16.90;99.90
11569;DHT22;5840;46.894;15.542;2023-07-31T01:29:35;16.90;99.90
11569;DHT22;5840;46.894;15.542;2023-07-31T01:32:05;16.90;99.90
11569;DHT22;5840;46.894;15.542;2023-07-31T01:34:33;16.90;99.90
11569;DHT22;5840;46.894;15.542;2023-07-31T01:37:01;16.90;99.90
11569;DHT22;5840;46.894;15.542;2023-07-31T01:39:28;16.90;99.90
11569;DHT22;5840;46.894;15.542;2023-07-31T01:41:55;16.90;99.90
11569;DHT22;5840;46.894;15.542;2023-07-31T01:44:23;16.90;99.90
11569;DHT22;5840;46.894;15.542;2023-07-31T01:46:50;16.80;99.90
11569;DHT22;5840;46.894;15.542;2023-07-31T01:49:17;16.80;99.90
11569;DHT22;5840;46.894;15.542;2023-07-31T01:51:44;16.80;99.90
11569;DHT22;5840;46.894;15.542;2023-07-31T01:54:11;16.80;99.90
11569;DHT22;5840;46.894;15.542;2023-07-31T01:56:38;16.80;99.90
11569;DHT22;5840;46.894;15.542;2023-07-31T01:59:04;16.80;99.90
11569;DHT22;5840;46.894;15.542;2023-07-31T02:01:33;16.70;99.90
11569;DHT22;5840;46.894;15.542;2023-07-31T02:04:00;16.70;99.90
11569;DHT22;5840;46.894;15.542;2023-07-31T02:06:27;16.60;99.90
11569;DHT22;5840;46.894;15.542;2023-07-31T02:08:54;16.60;99.90
11569;DHT22;5840;46.894;15.542;2023-07-31T02:11:20;16.60;99.90
11569;DHT22;5840;46.894;15.542;2023-07-31T02:13:47;16.60;99.90
11569;DHT22;5840;46.894;15.542;2023-07-31T02:16:14;16.60;99.90
11569;DHT22;5840;46.894;15.542;2023-07-31T02:18:42;16.60;99.90
11569;DHT22;5840;46.894;15.542;2023-07-31T02:21:09;16.70;99.90
11569;DHT22;5840;46.894;15.542;2023-07-31T02:23:36;16.60;99.90
11569;DHT22;5840;46.894;15.542;2023-07-31T02:26:03;16.70;99.90
11569;DHT22;5840;46.894;15.542;2023-07-31T02:28:30;16.60;99.90
11569;DHT22;5840;46.894;15.542;2023-07-31T02:30:57;16.60;99.90
11569;DHT22;5840;46.894;15.542;2023-07-31T02:33:24;16.60;99.90
11569;DHT22;5840;46.894;15.542;2023-07-31T02:35:52;16.60;99.90
11569;DHT22;5840;46.894;15.542;2023-07-31T02:38:19;16.60;99.90
11569;DHT22;5840;46.894;15.542;2023-07-31T02:40:46;16.50;99.90
11569;DHT22;5840;46.894;15.542;2023-07-31T02:43:13;16.50;99.90
11569;DHT22;5840;46.894;15.542;2023-07-31T02:45:40;16.50;99.90
11569;DHT22;5840;46.894;15.542;2023-07-31T02:48:07;16.40;99.90
11569;DHT22;5840;46.894;15.542;2023-07-31T02:50:34;16.50;99.90
11569;DHT22;5840;46.894;15.542;2023-07-31T02:53:02;16.40;99.90
11569;DHT22;5840;46.894;15.542;2023-07-31T02:55:29;16.40;99.90
11569;DHT22;5840;46.894;15.542;2023-07-31T02:57:56;16.40;99.90
11569;DHT22;5840;46.894;15.542;2023-07-31T03:00:23;16.40;99.90
11569;DHT22;5840;46.894;15.542;2023-07-31T03:02:50;16.40;99.90
11569;DHT22;5840;46.894;15.542;2023-07-31T03:05:17;16.40;99.90
11569;DHT22;5840;46.894;15.542;2023-07-31T03:07:44;16.40;99.90
11569;DHT22;5840;46.894;15.542;2023-07-31T03:10:12;16.30;99.90
11569;DHT22;5840;46.894;15.542;2023-07-31T03:12:40;16.30;99.90
11569;DHT22;5840;46.894;15.542;2023-07-31T03:15:08;16.30;99.90
11569;DHT22;5840;46.894;15.542;2023-07-31T03:17:35;16.30;99.90
11569;DHT22;5840;46.894;15.542;2023-07-31T03:20:02;16.20;99.90
11569;DHT22;5840;46.894;15.542;2023-07-31T03:22:28;16.20;99.90
11569;DHT22;5840;46.894;15.542;2023-07-31T03:24:55;16.20;99.90
11569;DHT22;5840;46.894;15.542;2023-07-31T03:27:24;16.20;99.90
11569;DHT22;5840;46.894;15.542;2023-07-31T03:29:51;16.20;99.90
11569;DHT22;5840;46.894;15.542;2023-07-31T03:32:17;16.20;99.90
11569;DHT22;5840;46.894;15.542;2023-07-31T03:34:44;16.10;99.90
11569;DHT22;5840;46.894;15.542;2023-07-31T03:37:11;16.20;99.90
11569;DHT22;5840;46.894;15.542;2023-07-31T03:39:38;16.10;99.90
11569;DHT22;5840;46.894;15.542;2023-07-31T03:42:06;16.10;99.90
11569;DHT22;5840;46.894;15.542;2023-07-31T03:44:34;16.10;99.90
11569;DHT22;5840;46.894;15.542;2023-07-31T03:47:01;16.10;99.90
11569;DHT22;5840;46.894;15.542;2023-07-31T03:49:28;16.00;99.90
11569;DHT22;5840;46.894;15.542;2023-07-31T03:51:55;16.00;99.90
11569;DHT22;5840;46.894;15.542;2023-07-31T03:54:22;16.00;99.90
11569;DHT22;5840;46.894;15.542;2023-07-31T03:56:49;15.90;99.90
11569;DHT22;5840;46.894;15.542;2023-07-31T03:59:16;15.90;99.90
11569;DHT22;5840;46.894;15.542;2023-07-31T04:01:44;15.90;99.90
11569;DHT22;5840;46.894;15.542;2023-07-31T04:04:11;15.90;99.90
11569;DHT22;5840;46.894;15.542;2023-07-31T04:06:38;15.80;99.90
11569;DHT22;5840;46.894;15.542;2023-07-31T04:09:05;15.90;99.90
11569;DHT22;5840;46.894;15.542;2023-07-31T04:11:32;15.80;99.90
11569;DHT22;5840;46.894;15.542;2023-07-31T04:13:59;15.80;99.90
11569;DHT22;5840;46.894;15.542;2023-07-31T04:16:26;15.90;99.90
11569;DHT22;5840;46.894;15.542;2023-07-31T04:18:54;15.80;99.90
11569;DHT22;5840;46.894;15.542;2023-07-31T04:21:21;15.80;99.90
11569;DHT22;5840;46.894;15.542;2023-07-31T04:23:47;15.80;99.90
11569;DHT22;5840;46.894;15.542;2023-07-31T04:26:14;15.80;99.90
11569;DHT22;5840;46.894;15.542;2023-07-31T04:28:41;15.80;99.90
11569;DHT22;5840;46.894;15.542;2023-07-31T04:31:08;15.70;99.90
11569;DHT22;5840;46.894;15.542;2023-07-31T04:33:35;15.70;99.90
11569;DHT22;5840;46.894;15.542;2023-07-31T04:36:04;15.70;99.90
11569;DHT22;5840;46.894;15.542;2023-07-31T04:38:31;15.70;99.90
11569;DHT22;5840;46.894;15.542;2023-07-31T04:40:58;15.70;99.90
11569;DHT22;5840;46.894;15.542;2023-07-31T04:43:25;15.70;99.90
11569;DHT22;5840;46.894;15.542;2023-07-31T04:45:52;15.70;99.90
11569;DHT22;5840;46.894;15.542;2023-07-31T04:48:19;15.70;99.90
11569;DHT22;5840;46.894;15.542;2023-07-31T04:50:46;15.80;99.90
11569;DHT22;5840;46.894;15.542;2023-07-31T04:53:14;15.80;99.90
11569;DHT22;5840;46.894;15.542;2023-07-31T04:55:41;15.80;99.90
11569;DHT22;5840;46.894;15.542;2023-07-31T04:58:08;15.80;99.90
11569;DHT22;5840;46.894;15.542;2023-07-31T05:00:35;15.80;99.90
11569;DHT22;5840;46.894;15.542;2023-07-31T05:03:02;15.80;99.90
11569;DHT22;5840;46.894;15.542;2023-07-31T05:05:29;15.80;99.90
11569;DHT22;5840;46.894;15.542;2023-07-31T05:07:56;15.80;99.90
11569;DHT22;5840;46.894;15.542;2023-07-31T05:10:24;15.80;99.90
11569;DHT22;5840;46.894;15.542;2023-07-31T05:12:51;15.90;99.90
11569;DHT22;5840;46.894;15.542;2023-07-31T05:15:18;15.90;99.90
11569;DHT22;5840;46.894;15.542;2023-07-31T05:17:45;15.90;99.90
11569;DHT22;5840;46.894;15.542;2023-07-31T05:20:12;16.00;99.90
11569;DHT22;5840;46.894;15.542;2023-07-31T05:22:40;16.10;99.90
11569;DHT22;5840;46.894;15.542;2023-07-31T05:25:07;16.10;99.90
11569;DHT22;5840;46.894;15.542;2023-07-31T05:27:36;16.20;99.90
11569;DHT22;5840;46.894;15.542;2023-07-31T05:30:03;16.30;99.90
11569;DHT22;5840;46.894;15.542;2023-07-31T05:32:30;16.40;99.90
11569;DHT22;5840;46.894;15.542;2023-07-31T05:34:57;16.50;99.90
11569;DHT22;5840;46.894;15.542;2023-07-31T05:37:24;16.60;99.90
11569;DHT22;5840;46.894;15.542;2023-07-31T05:39:51;16.70;99.90
11569;DHT22;5840;46.894;15.542;2023-07-31T05:42:18;16.80;99.90
11569;DHT22;5840;46.894;15.542;2023-07-31T05:44:47;17.00;99.90
11569;DHT22;5840;46.894;15.542;2023-07-31T05:47:13;17.00;99.90
11569;DHT22;5840;46.894;15.542;2023-07-31T05:49:40;17.10;99.90
11569;DHT22;5840;46.894;15.542;2023-07-31T05:52:07;17.20;99.90
11569;DHT22;5840;46.894;15.542;2023-07-31T05:54:34;17.30;99.90
11569;DHT22;5840;46.894;15.542;2023-07-31T05:57:01;17.50;99.90
11569;DHT22;5840;46.894;15.542;2023-07-31T05:59:28;17.60;99.90
11569;DHT22;5840;46.894;15.542;2023-07-31T06:01:59;17.70;99.90
11569;DHT22;5840;46.894;15.542;2023-07-31T06:04:26;17.80;99.90
11569;DHT22;5840;46.894;15.542;2023-07-31T06:06:54;17.90;99.90
11569;DHT22;5840;46.894;15.542;2023-07-31T06:09:21;18.00;99.90
11569;DHT22;5840;46.894;15.542;2023-07-31T06:11:48;18.10;99.90
11569;DHT22;5840;46.894;15.542;2023-07-31T06:14:14;18.30;99.90
11569;DHT22;5840;46.894;15.542;2023-07-31T06:16:41;18.40;99.90
11569;DHT22;5840;46.894;15.542;2023-07-31T06:19:11;18.50;99.90
11569;DHT22;5840;46.894;15.542;2023-07-31T06:21:38;18.60;99.90
11569;DHT22;5840;46.894;15.542;2023-07-31T06:24:07;18.70;99.90
11569;DHT22;5840;46.894;15.542;2023-07-31T06:26:35;18.80;99.90
11569;DHT22;5840;46.894;15.542;2023-07-31T06:29:01;19.00;99.90
11569;DHT22;5840;46.894;15.542;2023-07-31T06:31:28;19.30;99.90
11569;DHT22;5840;46.894;15.542;2023-07-31T06:33:55;19.30;99.90
11569;DHT22;5840;46.894;15.542;2023-07-31T06:36:23;19.40;99.90
11569;DHT22;5840;46.894;15.542;2023-07-31T06:38:50;19.40;99.90
11569;DHT22;5840;46.894;15.542;2023-07-31T06:41:17;19.60;99.90
11569;DHT22;5840;46.894;15.542;2023-07-31T06:43:44;19.80;99.90
11569;DHT22;5840;46.894;15.542;2023-07-31T06:46:12;19.80;99.90
11569;DHT22;5840;46.894;15.542;2023-07-31T06:48:39;20.00;99.90
11569;DHT22;5840;46.894;15.542;2023-07-31T06:51:06;20.10;99.90
11569;DHT22;5840;46.894;15.542;2023-07-31T06:53:34;20.00;99.90
11569;DHT22;5840;46.894;15.542;2023-07-31T06:56:01;20.20;99.90
11569;DHT22;5840;46.894;15.542;2023-07-31T06:58:29;20.20;99.90
11569;DHT22;5840;46.894;15.542;2023-07-31T07:00:56;20.50;99.90
11569;DHT22;5840;46.894;15.542;2023-07-31T07:03:23;20.70;99.90
11569;DHT22;5840;46.894;15.542;2023-07-31T07:05:50;20.80;99.90
11569;DHT22;5840;46.894;15.542;2023-07-31T07:08:16;20.90;99.90
11569;DHT22;5840;46.894;15.542;2023-07-31T07:10:45;21.10;99.90
11569;DHT22;5840;46.894;15.542;2023-07-31T07:13:13;21.20;99.90
11569;DHT22;5840;46.894;15.542;2023-07-31T07:15:40;21.50;99.90
11569;DHT22;5840;46.894;15.542;2023-07-31T07:18:07;21.70;99.90
11569;DHT22;5840;46.894;15.542;2023-07-31T07:20:36;21.80;99.90
11569;DHT22;5840;46.894;15.542;2023-07-31T07:23:03;22.00;99.90
11569;DHT22;5840;46.894;15.542;2023-07-31T07:25:29;22.00;99.90
11569;DHT22;5840;46.894;15.542;2023-07-31T07:27:58;22.10;99.90
11569;DHT22;5840;46.894;15.542;2023-07-31T07:30:25;22.20;99.90
11569;DHT22;5840;46.894;15.542;2023-07-31T07:32:52;22.40;99.90
11569;DHT22;5840;46.894;15.542;2023-07-31T07:35:18;22.60;99.90
11569;DHT22;5840;46.894;15.542;2023-07-31T07:37:48;22.70;99.90
11569;DHT22;5840;46.894;15.542;2023-07-31T07:40:15;22.70;99.90
11569;DHT22;5840;46.894;15.542;2023-07-31T07:42:42;22.80;99.90
11569;DHT22;5840;46.894;15.542;2023-07-31T07:45:12;22.70;99.90
11569;DHT22;5840;46.894;15.542;2023-07-31T07:47:40;22.90;99.90
11569;DHT22;5840;46.894;15.542;2023-07-31T07:50:08;22.90;99.90
11569;DHT22;5840;46.894;15.542;2023-07-31T07:52:35;23.00;99.90
11569;DHT22;5840;46.894;15.542;2023-07-31T07:55:02;23.10;99.90
11569;DHT22;5840;46.894;15.542;2023-07-31T07:57:29;23.20;99.90
11569;DHT22;5840;46.894;15.542;2023-07-31T07:59:56;23.30;99.90
11569;DHT22;5840;46.894;15.542;2023-07-31T08:02:24;23.40;99.90
11569;DHT22;5840;46.894;15.542;2023-07-31T08:04:51;23.50;99.90
11569;DHT22;5840;46.894;15.542;2023-07-31T08:07:18;23.70;99.90
11569;DHT22;5840;46.894;15.542;2023-07-31T08:09:45;24.00;99.90
11569;DHT22;5840;46.894;15.542;2023-07-31T08:12:12;24.10;99.90
11569;DHT22;5840;46.894;15.542;2023-07-31T08:14:39;24.20;99.90
11569;DHT22;5840;46.894;15.542;2023-07-31T08:17:06;24.20;99.90
11569;DHT22;5840;46.894;15.542;2023-07-31T08:19:34;24.20;99.90
11569;DHT22;5840;46.894;15.542;2023-07-31T08:22:01;24.10;99.90
11569;DHT22;5840;46.894;15.542;2023-07-31T08:24:28;24.20;99.90
11569;DHT22;5840;46.894;15.542;2023-07-31T08:26:55;24.40;99.90
11569;DHT22;5840;46.894;15.542;2023-07-31T08:29:23;24.60;99.90
11569;DHT22;5840;46.894;15.542;2023-07-31T08:31:50;24.70;99.90
11569;DHT22;5840;46.894;15.542;2023-07-31T08:34:17;24.60;99.90
11569;DHT22;5840;46.894;15.542;2023-07-31T08:36:45;24.70;99.90
11569;DHT22;5840;46.894;15.542;2023-07-31T08:39:12;24.70;99.90
11569;DHT22;5840;46.894;15.542;2023-07-31T08:41:39;24.80;99.90
11569;DHT22;5840;46.894;15.542;2023-07-31T08:44:06;24.90;99.90
11569;DHT22;5840;46.894;15.542;2023-07-31T08:46:34;25.00;99.90
11569;DHT22;5840;46.894;15.542;2023-07-31T08:49:04;25.00;99.90
11569;DHT22;5840;46.894;15.542;2023-07-31T08:51:33;25.20;99.90
11569;DHT22;5840;46.894;15.542;2023-07-31T08:54:01;25.30;99.90
11569;DHT22;5840;46.894;15.542;2023-07-31T08:56:30;25.40;99.90
11569;DHT22;5840;46.894;15.542;2023-07-31T08:58:59;25.30;99.90
11569;DHT22;5840;46.894;15.542;2023-07-31T09:01:29;25.20;99.90
11569;DHT22;5840;46.894;15.542;2023-07-31T09:03:58;25.30;99.90
11569;DHT22;5840;46.894;15.542;2023-07-31T09:06:27;25.40;99.90
11569;DHT22;5840;46.894;15.542;2023-07-31T09:08:55;25.10;99.90
11569;DHT22;5840;46.894;15.542;2023-07-31T09:11:24;25.30;99.90
11569;DHT22;5840;46.894;15.542;2023-07-31T09:13:51;25.40;99.90
11569;DHT22;5840;46.894;15.542;2023-07-31T09:16:18;25.50;99.90
11569;DHT22;5840;46.894;15.542;2023-07-31T09:18:53;25.80;99.90
11569;DHT22;5840;46.894;15.542;2023-07-31T09:21:22;25.90;99.90
11569;DHT22;5840;46.894;15.542;2023-07-31T09:23:49;26.00;99.90
11569;DHT22;5840;46.894;15.542;2023-07-31T09:26:33;26.10;99.90
11569;DHT22;5840;46.894;15.542;2023-07-31T09:29:01;26.10;99.90
11569;DHT22;5840;46.894;15.542;2023-07-31T09:31:40;26.30;99.90
11569;DHT22;5840;46.894;15.542;2023-07-31T09:34:08;26.30;99.90
11569;DHT22;5840;46.894;15.542;2023-07-31T09:36:40;26.40;99.90
11569;DHT22;5840;46.894;15.542;2023-07-31T09:39:09;26.50;99.90
11569;DHT22;5840;46.894;15.542;2023-07-31T09:41:38;26.50;99.90
11569;DHT22;5840;46.894;15.542;2023-07-31T09:44:05;26.40;99.90
11569;DHT22;5840;46.894;15.542;2023-07-31T09:46:35;26.70;99.90
11569;DHT22;5840;46.894;15.542;2023-07-31T09:49:07;26.70;99.90
11569;DHT22;5840;46.894;15.542;2023-07-31T09:51:34;26.90;99.90
11569;DHT22;5840;46.894;15.542;2023-07-31T09:54:08;26.80;99.90
11569;DHT22;5840;46.894;15.542;2023-07-31T09:56:38;26.90;99.90
11569;DHT22;5840;46.894;15.542;2023-07-31T09:59:08;27.00;99.90
11569;DHT22;5840;46.894;15.542;2023-07-31T10:01:38;26.90;99.90
11569;DHT22;5840;46.894;15.542;2023-07-31T10:04:05;26.80;99.90
11569;DHT22;5840;46.894;15.542;2023-07-31T10:06:34;27.00;99.90
11569;DHT22;5840;46.894;15.542;2023-07-31T10:09:02;26.90;99.90
11569;DHT22;5840;46.894;15.542;2023-07-31T10:11:30;27.10;99.90
11569;DHT22;5840;46.894;15.542;2023-07-31T10:14:01;27.10;99.90
11569;DHT22;5840;46.894;15.542;2023-07-31T10:16:30;27.20;99.90
11569;DHT22;5840;46.894;15.542;2023-07-31T10:18:57;27.40;99.90
11569;DHT22;5840;46.894;15.542;2023-07-31T10:21:24;27.50;99.90
11569;DHT22;5840;46.894;15.542;2023-07-31T10:23:51;27.60;99.90
11569;DHT22;5840;46.894;15.542;2023-07-31T10:26:19;27.70;99.90
11569;DHT22;5840;46.894;15.542;2023-07-31T10:28:47;27.70;99.90
11569;DHT22;5840;46.894;15.542;2023-07-31T10:31:16;27.70;99.90
11569;DHT22;5840;46.894;15.542;2023-07-31T10:33:45;27.50;99.90
11569;DHT22;5840;46.894;15.542;2023-07-31T10:36:12;27.40;99.90
11569;DHT22;5840;46.894;15.542;2023-07-31T10:38:40;27.10;99.90
11569;DHT22;5840;46.894;15.542;2023-07-31T10:41:10;27.10;99.90
11569;DHT22;5840;46.894;15.542;2023-07-31T10:43:37;27.30;99.90
11569;DHT22;5840;46.894;15.542;2023-07-31T10:46:06;27.40;99.90
11569;DHT22;5840;46.894;15.542;2023-07-31T10:48:38;27.40;99.90
11569;DHT22;5840;46.894;15.542;2023-07-31T10:51:08;27.10;99.90
11569;DHT22;5840;46.894;15.542;2023-07-31T10:53:36;27.20;99.90
11569;DHT22;5840;46.894;15.542;2023-07-31T10:56:04;27.40;99.90
11569;DHT22;5840;46.894;15.542;2023-07-31T10:58:32;27.40;99.90
11569;DHT22;5840;46.894;15.542;2023-07-31T11:01:00;27.40;99.90
11569;DHT22;5840;46.894;15.542;2023-07-31T11:03:43;27.60;99.90
11569;DHT22;5840;46.894;15.542;2023-07-31T11:06:10;27.80;99.90
11569;DHT22;5840;46.894;15.542;2023-07-31T11:08:42;27.80;99.30
11569;DHT22;5840;46.894;15.542;2023-07-31T11:11:10;27.80;99.90
11569;DHT22;5840;46.894;15.542;2023-07-31T11:13:42;27.80;99.90
11569;DHT22;5840;46.894;15.542;2023-07-31T11:16:10;27.90;99.90
11569;DHT22;5840;46.894;15.542;2023-07-31T11:18:41;27.90;99.60
11569;DHT22;5840;46.894;15.542;2023-07-31T11:21:08;27.90;99.90
11569;DHT22;5840;46.894;15.542;2023-07-31T11:23:37;28.00;99.90
11569;DHT22;5840;46.894;15.542;2023-07-31T11:26:05;28.00;99.90
11569;DHT22;5840;46.894;15.542;2023-07-31T11:28:33;27.90;98.50
11569;DHT22;5840;46.894;15.542;2023-07-31T11:31:01;27.90;99.90
11569;DHT22;5840;46.894;15.542;2023-07-31T11:33:28;27.80;99.40
11569;DHT22;5840;46.894;15.542;2023-07-31T11:35:57;27.60;99.90
11569;DHT22;5840;46.894;15.542;2023-07-31T11:38:26;27.60;99.90
11569;DHT22;5840;46.894;15.542;2023-07-31T11:40:54;27.60;98.50
11569;DHT22;5840;46.894;15.542;2023-07-31T11:43:21;27.40;99.90
11569;DHT22;5840;46.894;15.542;2023-07-31T11:45:49;27.40;99.90
11569;DHT22;5840;46.894;15.542;2023-07-31T11:48:21;27.50;99.90
11569;DHT22;5840;46.894;15.542;2023-07-31T11:50:49;27.80;99.90
11569;DHT22;5840;46.894;15.542;2023-07-31T11:53:20;27.80;99.50
11569;DHT22;5840;46.894;15.542;2023-07-31T11:55:49;27.90;99.90
11569;DHT22;5840;46.894;15.542;2023-07-31T11:58:17;28.10;99.90
11569;DHT22;5840;46.894;15.542;2023-07-31T12:00:44;28.00;99.10
11569;DHT22;5840;46.894;15.542;2023-07-31T12:03:12;27.70;98.10
11569;DHT22;5840;46.894;15.542;2023-07-31T12:05:39;27.40;99.90
11569;DHT22;5840;46.894;15.542;2023-07-31T12:08:10;27.20;99.90
11569;DHT22;5840;46.894;15.542;2023-07-31T12:10:39;27.20;99.90
11569;DHT22;5840;46.894;15.542;2023-07-31T12:13:08;27.40;99.90
11569;DHT22;5840;46.894;15.542;2023-07-31T12:15:40;27.30;99.90
11569;DHT22;5840;46.894;15.542;2023-07-31T12:18:09;27.20;99.90
11569;DHT22;5840;46.894;15.542;2023-07-31T12:20:43;27.00;99.90
11569;DHT22;5840;46.894;15.542;2023-07-31T12:23:18;26.80;99.90
11569;DHT22;5840;46.894;15.542;2023-07-31T12:26:00;26.40;99.90
11569;DHT22;5840;46.894;15.542;2023-07-31T12:28:27;26.40;99.90
11569;DHT22;5840;46.894;15.542;2023-07-31T12:30:57;26.60;99.90
11569;DHT22;5840;46.894;15.542;2023-07-31T12:33:30;27.00;99.90
11569;DHT22;5840;46.894;15.542;2023-07-31T12:35:57;27.30;99.90
11569;DHT22;5840;46.894;15.542;2023-07-31T12:38:25;27.50;99.90
11569;DHT22;5840;46.894;15.542;2023-07-31T12:40:53;27.40;99.80
11569;DHT22;5840;46.894;15.542;2023-07-31T12:43:20;27.20;99.90
11569;DHT22;5840;46.894;15.542;2023-07-31T12:45:47;27.10;99.90
11569;DHT22;5840;46.894;15.542;2023-07-31T12:48:14;27.10;99.90
11569;DHT22;5840;46.894;15.542;2023-07-31T12:50:41;27.40;99.90
11569;DHT22;5840;46.894;15.542;2023-07-31T12:53:07;27.40;99.90
11569;DHT22;5840;46.894;15.542;2023-07-31T12:55:35;27.50;99.90
11569;DHT22;5840;46.894;15.542;2023-07-31T12:58:03;27.50;99.90
11569;DHT22;5840;46.894;15.542;2023-07-31T13:00:30;27.60;99.90
11569;DHT22;5840;46.894;15.542;2023-07-31T13:02:57;27.50;98.90
11569;DHT22;5840;46.894;15.542;2023-07-31T13:05:24;27.20;99.90
11569;DHT22;5840;46.894;15.542;2023-07-31T13:07:51;27.00;99.90
11569;DHT22;5840;46.894;15.542;2023-07-31T13:10:18;26.80;99.90
11569;DHT22;5840;46.894;15.542;2023-07-31T13:12:45;27.00;99.90
11569;DHT22;5840;46.894;15.542;2023-07-31T13:15:14;27.40;99.90
11569;DHT22;5840;46.894;15.542;2023-07-31T13:17:41;27.60;99.90
11569;DHT22;5840;46.894;15.542;2023-07-31T13:20:08;27.80;99.90
11569;DHT22;5840;46.894;15.542;2023-07-31T13:22:35;27.80;99.10
11569;DHT22;5840;46.894;15.542;2023-07-31T13:25:03;27.70;97.30
11569;DHT22;5840;46.894;15.542;2023-07-31T13:27:30;27.80;97.80
11569;DHT22;5840;46.894;15.542;2023-07-31T13:29:57;28.00;99.90
11569;DHT22;5840;46.894;15.542;2023-07-31T13:32:26;28.10;96.90
11569;DHT22;5840;46.894;15.542;2023-07-31T13:34:52;28.20;98.10
11569;DHT22;5840;46.894;15.542;2023-07-31T13:37:19;28.30;98.50
11569;DHT22;5840;46.894;15.542;2023-07-31T13:39:46;28.50;99.60
11569;DHT22;5840;46.894;15.542;2023-07-31T13:44:42;28.50;96.80
11569;DHT22;5840;46.894;15.542;2023-07-31T13:47:09;28.50;96.60
11569;DHT22;5840;46.894;15.542;2023-07-31T13:49:37;28.70;98.00
11569;DHT22;5840;46.894;15.542;2023-07-31T13:52:05;28.20;96.00
11569;DHT22;5840;46.894;15.542;2023-07-31T13:54:31;28.00;96.90
11569;DHT22;5840;46.894;15.542;2023-07-31T13:56:58;27.70;98.40
11569;DHT22;5840;46.894;15.542;2023-07-31T13:59:25;27.70;96.80
11569;DHT22;5840;46.894;15.542;2023-07-31T14:01:52;27.90;99.80
11569;DHT22;5840;46.894;15.542;2023-07-31T14:04:19;27.90;96.80
11569;DHT22;5840;46.894;15.542;2023-07-31T14:06:47;28.00;97.80
11569;DHT22;5840;46.894;15.542;2023-07-31T14:09:16;28.20;98.20
11569;DHT22;5840;46.894;15.542;2023-07-31T14:11:43;28.30;97.80
11569;DHT22;5840;46.894;15.542;2023-07-31T14:14:10;28.10;97.60
11569;DHT22;5840;46.894;15.542;2023-07-31T14:16:37;28.10;98.30
11569;DHT22;5840;46.894;15.542;2023-07-31T14:19:04;27.90;97.50
11569;DHT22;5840;46.894;15.542;2023-07-31T14:21:31;27.80;99.90
11569;DHT22;5840;46.894;15.542;2023-07-31T14:23:59;27.50;98.10
11569;DHT22;5840;46.894;15.542;2023-07-31T14:26:26;27.40;99.90
11569;DHT22;5840;46.894;15.542;2023-07-31T14:28:53;27.40;99.90
11569;DHT22;5840;46.894;15.542;2023-07-31T14:31:20;27.50;99.90
11569;DHT22;5840;46.894;15.542;2023-07-31T14:33:47;27.70;99.70
11569;DHT22;5840;46.894;15.542;2023-07-31T14:36:14;27.70;99.90
11569;DHT22;5840;46.894;15.542;2023-07-31T14:38:40;27.70;99.90
11569;DHT22;5840;46.894;15.542;2023-07-31T14:41:09;27.60;99.40
11569;DHT22;5840;46.894;15.542;2023-07-31T14:43:36;27.60;99.90
11569;DHT22;5840;46.894;15.542;2023-07-31T14:46:02;27.50;98.70
11569;DHT22;5840;46.894;15.542;2023-07-31T14:48:29;27.40;99.70
11569;DHT22;5840;46.894;15.542;2023-07-31T14:50:57;27.40;98.70
11569;DHT22;5840;46.894;15.542;2023-07-31T14:53:24;27.40;99.70
11569;DHT22;5840;46.894;15.542;2023-07-31T14:55:50;27.40;99.90
11569;DHT22;5840;46.894;15.542;2023-07-31T14:58:19;27.30;99.10
11569;DHT22;5840;46.894;15.542;2023-07-31T15:00:46;27.30;98.60
11569;DHT22;5840;46.894;15.542;2023-07-31T15:03:13;27.30;98.80
11569;DHT22;5840;46.894;15.542;2023-07-31T15:05:40;27.20;99.10
11569;DHT22;5840;46.894;15.542;2023-07-31T15:08:06;27.20;99.50
11569;DHT22;5840;46.894;15.542;2023-07-31T15:10:33;27.10;99.80
11569;DHT22;5840;46.894;15.542;2023-07-31T15:13:00;27.20;99.90
11569;DHT22;5840;46.894;15.542;2023-07-31T15:15:29;27.10;99.40
11569;DHT22;5840;46.894;15.542;2023-07-31T15:17:56;27.00;99.90
11569;DHT22;5840;46.894;15.542;2023-07-31T15:20:23;27.00;99.90
11569;DHT22;5840;46.894;15.542;2023-07-31T15:22:50;26.90;99.80
11569;DHT22;5840;46.894;15.542;2023-07-31T15:25:17;26.90;99.90
11569;DHT22;5840;46.894;15.542;2023-07-31T15:27:44;27.00;99.90
11569;DHT22;5840;46.894;15.542;2023-07-31T15:30:12;26.90;99.90
11569;DHT22;5840;46.894;15.542;2023-07-31T15:32:40;26.70;99.90
11569;DHT22;5840;46.894;15.542;2023-07-31T15:35:08;26.60;99.90